Time;durP1;ratioP1;P1;durP2;ratioP2;P2;SDS_P1;SDS_P2;PMS_P1;PMS_P2;Temp;Humidity;BMP_temperature;BMP_pressure;BME280_temperature;BME280_humidity;BME280_pressure;Samples;Min_cycle;Max_cycle;Signal;HPM_P1;HPM_P2
2023/10/15 00:02:12;;;;;;;4.28;2.60;;;25.30;54.20;;;;;;5091309;28;20028;-69
2023/10/15 00:04:38;;;;;;;7.45;2.50;;;25.30;54.20;;;;;;5091412;28;20047;-68
2023/10/15 00:07:06;;;;;;;4.85;2.13;;;25.30;54.20;;;;;;5091216;28;20035;-68
2023/10/15 00:09:35;;;;;;;3.10;2.17;;;25.30;54.30;;;;;;5091268;28;20028;-68
2023/10/15 00:12:01;;;;;;;2.45;2.25;;;25.30;54.20;;;;;;5072085;28;20044;-68
2023/10/15 00:14:27;;;;;;;6.57;2.45;;;25.30;54.30;;;;;;5091029;28;20044;-68
2023/10/15 00:16:52;;;;;;;7.40;2.67;;;25.40;54.30;;;;;;5091044;28;20046;-68
2023/10/15 00:19:18;;;;;;;4.78;2.20;;;25.40;54.30;;;;;;5091123;28;20043;-68
2023/10/15 00:21:45;;;;;;;7.15;2.70;;;25.30;54.30;;;;;;5091086;28;20067;-68
2023/10/15 00:24:11;;;;;;;2.72;2.15;;;25.30;54.30;;;;;;5072516;28;20384;-68
2023/10/15 00:26:38;;;;;;;5.13;2.35;;;25.30;54.30;;;;;;5038647;28;20059;-69
2023/10/15 00:29:08;;;;;;;2.35;2.05;;;25.30;54.30;;;;;;5090711;28;20035;-67
2023/10/15 00:31:34;;;;;;;3.53;2.15;;;25.30;54.40;;;;;;5091082;28;20054;-70
2023/10/15 00:34:01;;;;;;;4.72;2.33;;;25.40;54.30;;;;;;5090957;28;20040;-68
2023/10/15 00:36:27;;;;;;;6.25;2.00;;;25.20;54.30;;;;;;5090936;28;20046;-68
2023/10/15 00:38:53;;;;;;;6.05;1.70;;;25.30;54.30;;;;;;5072599;28;20479;-68
2023/10/15 00:41:19;;;;;;;2.47;2.00;;;25.20;54.30;;;;;;5091095;28;20047;-68
2023/10/15 00:43:59;;;;;;;3.08;2.13;;;25.30;54.30;;;;;;5072580;28;20043;-68
2023/10/15 00:46:37;;;;;;;4.18;2.05;;;25.30;54.30;;;;;;5056074;28;20044;-68
2023/10/15 00:49:14;;;;;;;3.67;2.20;;;25.30;54.30;;;;;;5056133;28;20107;-68
2023/10/15 00:51:44;;;;;;;6.13;1.98;;;25.30;54.30;;;;;;5072635;28;20028;-68
2023/10/15 00:54:17;;;;;;;3.60;2.22;;;25.30;54.40;;;;;;5090615;28;20039;-68
2023/10/15 00:56:45;;;;;;;3.45;2.25;;;25.10;54.40;;;;;;5056089;28;20059;-68
2023/10/15 00:59:18;;;;;;;4.45;2.55;;;25.20;54.40;;;;;;5090713;28;20115;-68
2023/10/15 01:01:54;;;;;;;5.65;2.65;;;25.20;54.40;;;;;;5031366;28;20049;-68
2023/10/15 01:04:24;;;;;;;2.42;1.98;;;25.10;54.50;;;;;;5045353;28;20053;-68
2023/10/15 01:06:51;;;;;;;7.80;2.80;;;25.20;54.50;;;;;;5048074;28;20109;-67
2023/10/15 01:09:27;;;;;;;5.80;2.05;;;25.30;54.50;;;;;;5048096;28;20854;-68
2023/10/15 01:11:57;;;;;;;4.82;1.95;;;25.20;54.50;;;;;;5050482;28;20070;-68
2023/10/15 01:17:00;;;;;;;2.42;1.63;;;25.20;54.50;;;;;;5051721;28;20045;-67
2023/10/15 01:19:33;;;;;;;4.72;2.22;;;25.40;54.60;;;;;;5051493;28;20041;-68
2023/10/15 01:22:04;;;;;;;3.10;1.40;;;25.20;54.60;;;;;;5051891;28;20068;-68
2023/10/15 01:24:33;;;;;;;2.72;1.92;;;25.20;54.60;;;;;;5034608;28;20068;-68
2023/10/15 01:27:08;;;;;;;3.35;1.80;;;25.20;54.50;;;;;;5051596;28;20496;-68
2023/10/15 01:29:36;;;;;;;7.80;2.47;;;25.30;54.60;;;;;;5034381;28;20439;-67
2023/10/15 01:34:52;;;;;;;2.90;1.63;;;25.20;54.50;;;;;;5041174;28;20405;-68
2023/10/15 01:40:37;;;;;;;3.50;2.13;;;25.30;54.50;;;;;;5070495;28;20040;-68
2023/10/15 01:42:54;;;;;;;3.92;1.75;;;25.30;54.50;;;;;;5072604;28;20074;-68
2023/10/15 01:45:31;;;;;;;2.55;1.95;;;25.30;54.50;;;;;;5059027;28;20043;-67
2023/10/15 01:48:05;;;;;;;7.10;1.92;;;25.30;54.50;;;;;;5093928;28;20111;-68
2023/10/15 01:50:49;;;;;;;7.65;2.42;;;25.20;54.50;;;;;;5075494;28;20023;-67
2023/10/15 01:53:17;;;;;;;3.20;1.85;;;25.20;54.50;;;;;;5075473;28;20036;-68
2023/10/15 01:55:55;;;;;;;3.78;2.05;;;25.00;54.50;;;;;;5093596;28;20032;-68
2023/10/15 01:58:30;;;;;;;2.28;1.55;;;25.10;54.60;;;;;;5075352;28;20040;-68
2023/10/15 02:00:56;;;;;;;2.85;1.83;;;25.10;54.60;;;;;;5080617;28;20116;-68
2023/10/15 02:03:25;;;;;;;2.60;1.65;;;25.10;54.60;;;;;;5075596;28;20043;-68
2023/10/15 02:05:54;;;;;;;4.50;2.13;;;25.10;54.70;;;;;;5093460;28;20032;-68
2023/10/15 02:08:23;;;;;;;4.65;2.03;;;25.10;54.70;;;;;;5074933;28;20085;-67
2023/10/15 02:10:51;;;;;;;3.67;1.85;;;25.10;54.70;;;;;;5093694;28;20467;-68
2023/10/15 02:13:19;;;;;;;4.10;1.95;;;25.10;54.70;;;;;;5093479;28;20039;-68
2023/10/15 02:15:49;;;;;;;3.03;1.98;;;25.20;54.70;;;;;;5093349;28;20113;-67
2023/10/15 02:18:17;;;;;;;3.03;2.08;;;25.20;54.70;;;;;;5075142;28;20368;-68
2023/10/15 02:20:45;;;;;;;5.13;2.05;;;25.10;54.70;;;;;;5093012;28;20387;-68
2023/10/15 02:23:20;;;;;;;3.67;1.70;;;25.20;54.70;;;;;;5033448;28;20041;-68
2023/10/15 02:25:56;;;;;;;2.10;1.90;;;25.20;54.70;;;;;;5050155;28;20048;-68
2023/10/15 02:28:31;;;;;;;4.82;1.75;;;25.20;54.70;;;;;;5050081;28;20486;-69
2023/10/15 02:33:32;;;;;;;6.88;1.77;;;25.10;54.70;;;;;;5033534;28;20099;-68
2023/10/15 02:36:06;;;;;;;3.08;1.60;;;25.20;54.70;;;;;;5050320;28;20045;-68
2023/10/15 02:38:48;;;;;;;3.75;2.15;;;25.20;54.70;;;;;;5033375;28;20404;-68
2023/10/15 02:41:17;;;;;;;1.95;1.65;;;25.10;54.70;;;;;;5050083;28;20128;-68
2023/10/15 02:43:53;;;;;;;2.13;1.90;;;25.20;54.70;;;;;;5033364;28;20033;-68
2023/10/15 02:46:35;;;;;;;2.65;1.80;;;25.20;54.70;;;;;;5033639;28;20037;-68
2023/10/15 02:49:03;;;;;;;2.03;1.70;;;25.10;54.70;;;;;;5033095;28;20046;-68
2023/10/15 02:51:35;;;;;;;3.30;2.22;;;25.20;54.70;;;;;;5050011;28;20346;-68
2023/10/15 02:54:27;;;;;;;3.50;1.93;;;25.10;54.70;;;;;;5049908;28;20139;-68
2023/10/15 02:56:59;;;;;;;2.72;1.80;;;25.10;54.70;;;;;;5049835;28;20327;-68
2023/10/15 02:59:30;;;;;;;4.28;1.70;;;25.00;54.70;;;;;;5016600;28;20041;-68
2023/10/15 03:01:57;;;;;;;5.35;2.40;;;25.10;54.70;;;;;;5076728;28;20028;-69
2023/10/15 03:04:32;;;;;;;2.75;1.85;;;25.00;54.70;;;;;;5092404;28;20090;-68
2023/10/15 03:07:19;;;;;;;3.58;2.13;;;25.10;54.70;;;;;;5092075;28;20035;-68
2023/10/15 03:09:51;;;;;;;3.10;2.15;;;25.00;54.80;;;;;;5045996;28;20091;-68
2023/10/15 03:12:18;;;;;;;7.63;1.90;;;25.00;54.80;;;;;;5029611;28;20041;-68
2023/10/15 03:14:45;;;;;;;3.45;2.10;;;25.00;54.80;;;;;;5013057;28;20091;-68
2023/10/15 03:17:14;;;;;;;3.22;2.10;;;25.00;54.80;;;;;;5029528;28;20083;-69
2023/10/15 03:19:42;;;;;;;2.38;1.83;;;25.00;54.80;;;;;;5029423;28;20041;-67
2023/10/15 03:22:12;;;;;;;3.88;2.15;;;25.20;54.80;;;;;;5029321;28;20073;-68
2023/10/15 03:24:43;;;;;;;4.18;2.10;;;25.10;54.80;;;;;;5012313;28;20080;-68
2023/10/15 03:27:10;;;;;;;5.38;2.00;;;25.00;54.80;;;;;;5029361;28;20037;-66
2023/10/15 03:29:36;;;;;;;3.15;2.05;;;25.00;54.80;;;;;;5013081;28;20501;-68
2023/10/15 03:32:09;;;;;;;3.42;1.80;;;25.20;54.80;;;;;;5012901;28;20048;-68
2023/10/15 03:34:35;;;;;;;;;;;25.00;54.80;;;;;;5028891;28;20053;-67
2023/10/15 03:37:05;;;;;;;3.10;1.77;;;25.00;54.80;;;;;;5045737;28;19909;-68
2023/10/15 03:44:47;;;;;;;5.47;1.92;;;25.20;54.80;;;;;;5091268;28;20540;-68
2023/10/15 03:47:15;;;;;;;4.65;2.08;;;25.20;54.80;;;;;;5091630;28;20511;-68
2023/10/15 03:49:46;;;;;;;3.97;2.17;;;25.00;54.80;;;;;;5073160;28;20040;-68
2023/10/15 03:52:20;;;;;;;2.63;1.95;;;25.20;54.80;;;;;;5091518;28;20028;-69
2023/10/15 03:54:50;;;;;;;3.63;1.70;;;25.00;54.80;;;;;;5091157;28;20043;-69
2023/10/15 03:57:34;;;;;;;2.83;1.25;;;25.10;54.80;;;;;;5091634;28;20071;-69
2023/10/15 04:00:01;;;;;;;1.77;1.48;;;25.10;54.80;;;;;;5091572;28;20506;-69
2023/10/15 04:02:54;;;;;;;3.55;2.55;;;25.00;54.80;;;;;;5091308;28;20078;-68
2023/10/15 04:05:14;;;;;;;2.53;1.90;;;24.90;54.80;;;;;;5093452;28;20057;-68
2023/10/15 04:07:46;;;;;;;2.47;2.15;;;25.00;54.80;;;;;;5091241;28;20161;-69
2023/10/15 04:10:13;;;;;;;2.80;1.98;;;25.00;54.80;;;;;;5073911;28;20399;-70
2023/10/15 04:12:43;;;;;;;2.05;1.33;;;25.00;54.80;;;;;;5092036;28;20036;-69
2023/10/15 04:15:17;;;;;;;1.42;1.33;;;24.90;54.70;;;;;;5091678;28;20106;-69
2023/10/15 04:17:48;;;;;;;1.60;1.23;;;25.00;56.50;;;;;;5091165;28;20493;-70
2023/10/15 04:20:15;;;;;;;1.38;1.17;;;25.10;54.90;;;;;;5073106;28;20422;-69
2023/10/15 04:22:46;;;;;;;2.25;1.38;;;25.30;55.00;;;;;;5073602;28;20060;-70
2023/10/15 04:25:36;;;;;;;2.53;2.03;;;25.50;57.30;;;;;;5073872;28;20056;-71
2023/10/15 04:28:20;;;;;;;2.47;1.70;;;26.00;57.50;;;;;;5091861;28;20036;-69
2023/10/15 04:30:46;;;;;;;2.50;1.85;;;26.30;56.30;;;;;;5091287;28;20044;-71
2023/10/15 04:33:15;;;;;;;5.50;1.70;;;26.00;54.00;;;;;;5073904;28;20491;-69
2023/10/15 04:35:41;;;;;;;2.47;1.48;;;25.80;53.20;;;;;;5073644;28;20040;-69
2023/10/15 04:38:07;;;;;;;1.40;1.25;;;25.80;53.10;;;;;;5091074;28;20107;-68
2023/10/15 04:43:25;;;;;;;2.75;2.10;;;25.60;52.90;;;;;;5090735;28;20024;-69
2023/10/15 04:45:54;;;;;;;2.75;1.30;;;25.60;52.80;;;;;;5057343;28;20498;-70
2023/10/15 04:48:32;;;;;;;3.28;2.10;;;25.50;52.80;;;;;;5095482;28;20115;-69
2023/10/15 04:51:13;;;;;;;4.60;2.10;;;25.50;52.70;;;;;;5077397;28;20036;-69
2023/10/15 04:53:50;;;;;;;2.63;1.30;;;25.50;52.60;;;;;;5095529;28;20032;-72
2023/10/15 04:56:16;;;;;;;2.72;1.50;;;25.40;52.50;;;;;;5061736;28;20032;-74
2023/10/15 04:58:42;;;;;;;3.58;1.77;;;25.40;52.50;;;;;;5077796;28;20103;-74
2023/10/15 05:01:09;;;;;;;2.13;1.52;;;25.40;52.50;;;;;;5096221;28;20032;-74
2023/10/15 05:03:39;;;;;;;1.63;1.20;;;25.40;52.60;;;;;;5077660;28;20024;-74
2023/10/15 05:06:10;;;;;;;1.67;1.58;;;25.50;52.60;;;;;;5081573;28;20061;-70
2023/10/15 05:08:42;;;;;;;1.88;1.48;;;25.40;52.60;;;;;;5115658;28;20089;-70
2023/10/15 05:11:09;;;;;;;2.28;1.83;;;25.40;52.20;;;;;;5115600;28;20035;-69
2023/10/15 05:13:35;;;;;;;1.70;1.58;;;25.40;52.20;;;;;;5092125;28;20032;-69
2023/10/15 05:16:02;;;;;;;5.97;1.80;;;25.30;52.50;;;;;;5092587;28;20036;-70
2023/10/15 05:18:29;;;;;;;2.28;1.58;;;25.50;52.10;;;;;;5075995;28;20488;-69
2023/10/15 05:20:55;;;;;;;5.20;2.38;;;25.40;51.70;;;;;;5092929;28;20032;-70
2023/10/15 05:23:25;;;;;;;2.97;2.13;;;25.60;51.70;;;;;;5092258;28;20067;-70
2023/10/15 05:25:52;;;;;;;4.75;2.92;;;25.60;51.20;;;;;;5075149;28;20539;-68
2023/10/15 05:28:19;;;;;;;4.95;3.10;;;25.60;52.00;;;;;;5075047;28;20047;-68
2023/10/15 05:30:45;;;;;;;2.65;2.35;;;25.60;49.00;;;;;;5091700;28;20528;-67
2023/10/15 05:33:11;;;;;;;5.90;5.40;;;25.50;48.90;;;;;;5091777;28;20074;-68
2023/10/15 05:35:38;;;;;;;8.90;8.07;;;25.50;49.10;;;;;;5070941;28;20044;-68
2023/10/15 05:38:08;;;;;;;8.52;7.72;;;25.50;50.50;;;;;;5071337;28;20040;-72
2023/10/15 05:40:35;;;;;;;14.05;10.30;;;25.60;53.20;;;;;;5071183;28;20115;-68
2023/10/15 05:43:01;;;;;;;14.38;11.93;;;25.60;52.60;;;;;;5072002;28;20029;-71
2023/10/15 05:45:27;;;;;;;7.28;6.35;;;25.70;53.70;;;;;;5090805;28;20067;-70
2023/10/15 05:47:53;;;;;;;6.70;4.68;;;25.60;54.70;;;;;;5096646;28;20063;-70
2023/10/15 05:50:19;;;;;;;3.80;2.78;;;25.60;52.80;;;;;;5094017;28;20371;-71
2023/10/15 05:52:45;;;;;;;5.43;3.08;;;25.80;54.70;;;;;;5094354;28;20036;-72
2023/10/15 05:55:11;;;;;;;5.47;2.55;;;25.70;54.40;;;;;;5102298;28;20398;-73
2023/10/15 05:57:38;;;;;;;3.70;2.90;;;25.70;55.30;;;;;;5093819;28;20115;-75
2023/10/15 06:00:26;;;;;;;4.25;2.50;;;25.60;55.80;;;;;;5075887;28;20036;-70
2023/10/15 06:02:56;;;;;;;5.18;2.40;;;25.70;55.10;;;;;;5075791;28;20028;-74
2023/10/15 06:05:22;;;;;;;6.50;2.88;;;25.50;54.80;;;;;;5095489;28;20040;-72
2023/10/15 06:07:54;;;;;;;4.53;2.78;;;25.60;54.60;;;;;;5080355;28;20070;-72
2023/10/15 06:10:20;;;;;;;2.70;2.45;;;25.60;54.80;;;;;;5081707;28;20115;-71
2023/10/15 06:12:46;;;;;;;6.22;3.10;;;25.70;54.70;;;;;;5093713;28;20032;-68
2023/10/15 06:15:14;;;;;;;4.28;2.58;;;25.40;54.80;;;;;;5093710;28;20040;-70
2023/10/15 06:17:42;;;;;;;5.80;3.30;;;25.50;55.10;;;;;;5075659;28;20035;-72
2023/10/15 06:20:14;;;;;;;4.35;3.15;;;25.50;55.10;;;;;;5096846;28;20024;-71
2023/10/15 06:22:42;;;;;;;7.55;3.00;;;25.50;55.20;;;;;;5098185;28;20036;-71
2023/10/15 06:25:09;;;;;;;3.50;2.90;;;25.40;55.40;;;;;;5093448;28;20056;-70
2023/10/15 06:27:36;;;;;;;2.75;2.17;;;25.40;55.60;;;;;;5093685;28;20735;-69
2023/10/15 06:30:14;;;;;;;4.72;2.72;;;25.40;55.90;;;;;;5076577;28;20115;-71
2023/10/15 06:32:50;;;;;;;5.82;2.90;;;25.50;56.00;;;;;;5093724;28;20030;-73
2023/10/15 06:35:20;;;;;;;6.63;2.58;;;25.30;55.80;;;;;;5106289;28;20109;-70
2023/10/15 06:37:50;;;;;;;4.40;2.85;;;25.50;55.80;;;;;;5114019;28;20439;-70
2023/10/15 06:40:16;;;;;;;4.57;2.78;;;25.50;55.80;;;;;;5113794;28;20066;-72
2023/10/15 06:42:43;;;;;;;6.32;2.92;;;25.50;55.80;;;;;;5095301;28;20036;-70
2023/10/15 06:45:11;;;;;;;5.28;2.70;;;25.40;55.80;;;;;;5113257;28;20756;-70
2023/10/15 06:47:37;;;;;;;5.70;2.65;;;25.40;55.90;;;;;;5113844;28;20027;-71
2023/10/15 06:50:07;;;;;;;4.72;2.60;;;25.40;56.30;;;;;;5113504;28;20035;-71
2023/10/15 06:52:38;;;;;;;5.90;2.78;;;25.40;56.40;;;;;;5113623;28;20035;-70
2023/10/15 06:55:08;;;;;;;4.70;3.10;;;25.60;56.40;;;;;;5113223;28;20479;-70
2023/10/15 06:57:40;;;;;;;4.43;2.28;;;25.40;56.40;;;;;;5113473;28;20032;-71
2023/10/15 07:00:12;;;;;;;5.00;2.90;;;25.40;56.40;;;;;;5090859;28;20032;-70
2023/10/15 07:02:38;;;;;;;4.28;3.05;;;25.30;56.40;;;;;;5113772;28;20032;-69
2023/10/15 07:05:05;;;;;;;3.85;3.22;;;25.60;56.40;;;;;;5078041;28;20038;-70
2023/10/15 07:07:33;;;;;;;5.22;3.20;;;25.50;56.30;;;;;;5113387;28;20050;-71
2023/10/15 07:10:06;;;;;;;3.63;2.70;;;25.60;56.30;;;;;;5112426;28;20035;-70
2023/10/15 07:12:34;;;;;;;6.07;3.53;;;25.60;56.20;;;;;;5095091;28;20356;-70
2023/10/15 07:15:01;;;;;;;5.35;3.00;;;25.50;56.20;;;;;;5111875;28;20137;-71
2023/10/15 07:17:28;;;;;;;6.63;3.58;;;25.60;56.20;;;;;;5093195;28;20027;-69
2023/10/15 07:19:54;;;;;;;6.35;3.28;;;25.60;56.20;;;;;;5112431;28;20134;-70
2023/10/15 07:22:20;;;;;;;4.50;3.10;;;25.60;56.10;;;;;;5112846;28;20027;-69
2023/10/15 07:24:46;;;;;;;3.92;2.67;;;25.60;56.10;;;;;;5112431;28;20082;-70
2023/10/15 07:27:12;;;;;;;3.78;2.65;;;25.60;56.10;;;;;;5112603;28;20065;-71
2023/10/15 07:29:39;;;;;;;6.63;2.63;;;25.70;56.10;;;;;;5112248;28;20031;-71
2023/10/15 07:32:07;;;;;;;4.13;2.95;;;25.70;56.10;;;;;;5112406;28;20027;-69
2023/10/15 07:34:33;;;;;;;3.88;1.85;;;25.60;56.20;;;;;;5099914;28;20066;-70
2023/10/15 07:36:59;;;;;;;5.25;2.67;;;25.60;56.50;;;;;;5092189;28;20056;-69
2023/10/15 07:39:25;;;;;;;11.57;3.53;;;25.60;56.50;;;;;;5041090;28;20101;-74
2023/10/15 07:41:52;;;;;;;2.83;1.88;;;25.70;56.40;;;;;;5091956;28;20032;-69
2023/10/15 07:44:18;;;;;;;4.93;1.88;;;25.70;57.50;;;;;;5092588;28;20127;-68
2023/10/15 07:46:45;;;;;;;2.20;1.73;;;25.90;56.10;;;;;;5073233;28;20040;-67
2023/10/15 07:49:16;;;;;;;2.00;1.80;;;26.10;58.00;;;;;;5073379;28;20507;-68
2023/10/15 07:51:42;;;;;;;6.57;2.33;;;26.40;56.50;;;;;;5091681;28;20048;-71
2023/10/15 07:54:08;;;;;;;3.28;2.55;;;26.50;52.20;;;;;;5091582;28;20039;-68
2023/10/15 07:56:34;;;;;;;7.70;2.05;;;26.20;54.90;;;;;;5091410;28;20027;-70
2023/10/15 07:59:05;;;;;;;3.85;1.48;;;26.20;54.90;;;;;;5091535;28;20488;-72
2023/10/15 08:01:31;;;;;;;3.10;1.52;;;26.10;54.90;;;;;;5074037;28;20044;-71
2023/10/15 08:04:00;;;;;;;2.55;1.35;;;26.20;54.90;;;;;;5091544;28;20024;-72
2023/10/15 08:06:26;;;;;;;2.50;1.40;;;26.10;55.00;;;;;;5091923;28;20032;-69
2023/10/15 08:08:52;;;;;;;3.28;1.27;;;26.10;55.20;;;;;;5091575;28;20036;-67
2023/10/15 08:11:18;;;;;;;2.60;2.10;;;26.20;55.30;;;;;;5091243;28;20028;-67
2023/10/15 08:13:44;;;;;;;2.63;1.80;;;26.10;55.40;;;;;;5091246;28;20039;-67
2023/10/15 08:16:10;;;;;;;3.13;1.80;;;26.10;55.70;;;;;;5091158;28;20036;-70
2023/10/15 08:18:36;;;;;;;4.03;1.23;;;26.10;55.80;;;;;;5073247;28;20085;-66
2023/10/15 08:21:02;;;;;;;1.67;1.33;;;26.10;55.80;;;;;;5075303;28;20114;-67
2023/10/15 08:23:28;;;;;;;2.05;1.23;;;26.20;55.70;;;;;;5090983;28;20128;-71
2023/10/15 08:25:54;;;;;;;3.88;1.25;;;26.10;55.60;;;;;;5090734;28;20040;-69
2023/10/15 08:28:21;;;;;;;2.67;1.50;;;26.10;55.40;;;;;;5091539;28;20040;-67
2023/10/15 08:30:53;;;;;;;2.28;1.27;;;26.10;55.20;;;;;;5073031;28;20072;-67
2023/10/15 08:33:19;;;;;;;1.88;1.15;;;26.20;55.30;;;;;;5091342;28;20559;-69
2023/10/15 08:35:45;;;;;;;2.25;1.30;;;26.20;55.40;;;;;;5090846;28;20111;-69
2023/10/15 08:38:12;;;;;;;3.20;1.60;;;26.00;55.20;;;;;;5091259;28;20056;-67
2023/10/15 08:40:39;;;;;;;3.95;1.52;;;26.10;55.30;;;;;;5091380;28;20040;-69
2023/10/15 08:43:11;;;;;;;2.05;1.50;;;26.10;55.40;;;;;;5073222;28;20031;-69
2023/10/15 08:45:38;;;;;;;2.35;2.15;;;26.10;55.70;;;;;;5072921;28;20040;-69
2023/10/15 08:48:10;;;;;;;3.72;1.70;;;26.10;56.80;;;;;;5090819;28;20047;-67
2023/10/15 08:50:37;;;;;;;3.30;1.50;;;26.00;56.40;;;;;;5090796;28;20046;-67
2023/10/15 08:53:06;;;;;;;2.83;1.67;;;26.00;56.10;;;;;;5091104;28;20475;-67
2023/10/15 08:55:34;;;;;;;2.97;2.28;;;26.00;56.00;;;;;;5091088;28;20687;-68
2023/10/15 08:58:00;;;;;;;5.40;2.20;;;26.10;55.70;;;;;;5090664;28;20555;-66
2023/10/15 09:00:27;;;;;;;7.18;2.40;;;26.10;57.00;;;;;;5090706;28;20042;-67
2023/10/15 09:02:56;;;;;;;3.42;1.50;;;26.30;61.00;;;;;;5090462;28;20030;-66
2023/10/15 09:05:25;;;;;;;7.20;5.55;;;26.70;64.10;;;;;;5090355;28;20044;-68
2023/10/15 09:07:54;;;;;;;30.90;15.95;;;26.90;62.30;;;;;;5090604;28;20409;-66
2023/10/15 09:10:21;;;;;;;11.63;7.60;;;26.90;61.40;;;;;;5093422;28;20027;-67
2023/10/15 09:12:50;;;;;;;6.25;3.63;;;27.00;59.70;;;;;;5090732;28;20115;-67
2023/10/15 09:15:17;;;;;;;9.05;3.28;;;26.80;57.70;;;;;;5090480;28;20070;-67
2023/10/15 09:17:59;;;;;;;9.35;3.20;;;26.80;56.40;;;;;;5087243;28;20036;-67
2023/10/15 09:20:32;;;;;;;7.13;3.03;;;26.60;55.10;;;;;;5090757;28;20091;-67
2023/10/15 09:23:00;;;;;;;6.20;3.45;;;26.50;54.10;;;;;;5072526;28;20081;-66
2023/10/15 09:25:28;;;;;;;3.50;2.63;;;26.50;53.30;;;;;;5090100;28;20056;-66
2023/10/15 09:27:54;;;;;;;5.90;3.50;;;26.60;52.20;;;;;;5106303;28;20040;-66
2023/10/15 09:30:24;;;;;;;10.35;3.00;;;26.40;51.70;;;;;;5110700;28;20077;-65
2023/10/15 09:32:51;;;;;;;7.88;3.20;;;26.40;51.50;;;;;;5112993;28;20437;-66
2023/10/15 09:35:17;;;;;;;5.65;3.25;;;26.40;51.60;;;;;;5096397;28;20474;-65
2023/10/15 09:37:46;;;;;;;3.10;2.80;;;26.40;51.90;;;;;;5110704;28;20161;-66
2023/10/15 09:40:19;;;;;;;4.78;2.92;;;26.40;52.40;;;;;;5085534;28;20506;-67
2023/10/15 09:42:55;;;;;;;5.97;3.47;;;26.40;52.60;;;;;;5093622;28;20093;-66
2023/10/15 09:45:24;;;;;;;4.47;3.08;;;26.50;52.40;;;;;;5093804;28;20040;-66
2023/10/15 09:47:54;;;;;;;4.50;3.13;;;26.30;51.80;;;;;;5075870;28;20040;-66
2023/10/15 09:50:24;;;;;;;8.13;3.33;;;26.20;51.00;;;;;;5093800;28;20052;-68
2023/10/15 09:52:57;;;;;;;5.85;3.05;;;26.30;51.10;;;;;;5093637;28;20488;-67
2023/10/15 09:55:28;;;;;;;10.50;3.63;;;26.50;50.30;;;;;;5093745;28;20024;-68
2023/10/15 09:57:56;;;;;;;7.78;3.65;;;26.60;48.80;;;;;;5093854;28;20036;-69
2023/10/15 10:03:19;;;;;;;5.85;3.38;;;26.60;50.30;;;;;;5030841;28;20041;-67
2023/10/15 10:06:15;;;;;;;14.52;3.08;;;26.60;48.20;;;;;;5030685;28;20139;-67
2023/10/15 10:08:59;;;;;;;14.07;3.67;;;26.50;47.70;;;;;;5030646;28;20077;-67
2023/10/15 10:11:45;;;;;;;7.45;3.25;;;26.50;47.50;;;;;;5030470;28;20112;-67
2023/10/15 10:14:29;;;;;;;4.15;3.50;;;26.50;47.20;;;;;;5030431;28;20504;-67
2023/10/15 10:16:56;;;;;;;7.10;3.28;;;26.40;46.80;;;;;;5030641;28;20486;-68
2023/10/15 10:19:22;;;;;;;5.15;3.08;;;26.40;46.60;;;;;;5030719;28;20037;-68
2023/10/15 10:21:48;;;;;;;4.57;3.30;;;26.40;46.40;;;;;;5043738;28;20516;-68
2023/10/15 10:24:17;;;;;;;6.60;3.40;;;26.40;46.30;;;;;;5050082;28;20056;-68
2023/10/15 10:26:54;;;;;;;4.10;2.80;;;26.30;46.10;;;;;;5050199;28;20052;-68
2023/10/15 10:29:26;;;;;;;7.55;3.22;;;26.30;46.00;;;;;;5050513;28;20044;-69
2023/10/15 10:31:55;;;;;;;6.07;3.63;;;26.30;45.80;;;;;;5049734;28;20429;-70
2023/10/15 10:34:30;;;;;;;4.18;2.85;;;26.40;45.70;;;;;;5049995;28;20195;-68
2023/10/15 10:36:56;;;;;;;6.93;3.13;;;26.40;45.50;;;;;;5050439;28;20058;-70
2023/10/15 10:39:22;;;;;;;5.00;2.95;;;26.40;45.40;;;;;;5040364;28;20403;-68
2023/10/15 10:42:10;;;;;;;10.93;3.78;;;26.40;45.30;;;;;;5078095;28;20050;-67
2023/10/15 10:44:37;;;;;;;35.88;7.63;;;26.40;45.50;;;;;;5077877;28;20039;-68
2023/10/15 10:47:28;;;;;;;10.23;5.07;;;26.80;49.70;;;;;;5083222;28;20390;-67
2023/10/15 10:50:00;;;;;;;14.02;4.50;;;27.50;53.10;;;;;;5104803;28;20091;-68
2023/10/15 10:52:36;;;;;;;7.57;3.58;;;27.80;50.90;;;;;;5111262;28;20467;-68
2023/10/15 10:55:34;;;;;;;7.28;3.63;;;27.60;48.50;;;;;;5110105;28;20032;-68
2023/10/15 10:58:26;;;;;;;4.75;3.25;;;27.30;47.80;;;;;;5110926;28;20478;-67
2023/10/15 11:00:53;;;;;;;7.63;3.63;;;27.20;47.40;;;;;;5074459;28;20067;-67
2023/10/15 11:03:20;;;;;;;5.95;3.63;;;27.20;47.20;;;;;;5049251;28;20072;-67
2023/10/15 11:06:07;;;;;;;4.57;3.75;;;27.20;47.20;;;;;;5049481;28;20056;-69
2023/10/15 11:08:33;;;;;;;5.38;3.67;;;27.00;47.20;;;;;;5024748;28;20032;-68
2023/10/15 11:10:59;;;;;;;4.28;3.33;;;27.00;47.40;;;;;;5039653;28;20048;-70
2023/10/15 11:13:28;;;;;;;8.82;3.92;;;27.10;48.30;;;;;;5032497;28;20091;-68
2023/10/15 11:15:54;;;;;;;11.32;4.68;;;28.10;55.30;;;;;;5049889;28;20436;-68
2023/10/15 11:18:23;;;;;;;7.85;4.15;;;28.70;54.70;;;;;;5049679;28;20378;-69
2023/10/15 11:20:52;;;;;;;7.75;3.45;;;28.60;50.20;;;;;;5066473;28;20177;-69
2023/10/15 11:23:23;;;;;;;8.23;4.70;;;28.20;48.80;;;;;;5055359;28;20067;-68
2023/10/15 11:25:56;;;;;;;5.90;3.45;;;28.00;48.30;;;;;;5051919;28;20044;-70
2023/10/15 11:28:24;;;;;;;;;;;27.90;47.70;;;;;;5046657;28;20075;-68
2023/10/15 11:30:51;;;;;;;10.65;3.92;;;27.70;47.60;;;;;;5046749;28;20249;-68
2023/10/15 11:33:17;;;;;;;4.70;3.25;;;27.50;47.80;;;;;;5061519;28;20116;-69
2023/10/15 11:35:48;;;;;;;7.28;4.72;;;27.50;47.80;;;;;;5073840;28;20032;-70
2023/10/15 11:38:15;;;;;;;9.05;4.43;;;27.40;47.90;;;;;;5092164;28;20039;-69
2023/10/15 11:40:45;;;;;;;6.10;3.40;;;27.30;47.90;;;;;;5090483;28;20433;-70
2023/10/15 11:43:17;;;;;;;7.70;3.72;;;27.30;48.10;;;;;;5085374;28;20043;-70
2023/10/15 11:45:46;;;;;;;6.18;3.10;;;27.30;48.20;;;;;;5102202;28;20068;-69
2023/10/15 11:48:14;;;;;;;5.07;3.50;;;27.20;48.40;;;;;;5092374;28;20068;-70
2023/10/15 11:50:41;;;;;;;6.53;3.83;;;27.20;48.60;;;;;;5111957;28;20138;-70
2023/10/15 11:56:20;;;;;;;6.25;3.70;;;27.30;48.90;;;;;;5047018;28;20116;-69
2023/10/15 11:58:51;;;;;;;6.47;3.73;;;27.20;48.80;;;;;;5012454;28;20120;-67
2023/10/15 12:01:17;;;;;;;6.03;3.75;;;27.20;49.30;;;;;;4995204;28;20049;-71
2023/10/15 12:03:43;;;;;;;12.70;4.35;;;27.10;51.50;;;;;;5028736;28;20092;-71
2023/10/15 12:06:09;;;;;;;4.82;3.33;;;27.20;51.30;;;;;;5028467;28;20489;-68
2023/10/15 12:08:38;;;;;;;7.50;3.38;;;27.00;51.20;;;;;;5028485;28;20087;-70
2023/10/15 12:11:04;;;;;;;8.07;3.78;;;27.20;52.80;;;;;;5028491;28;20040;-67
2023/10/15 12:13:30;;;;;;;5.38;2.63;;;27.20;51.50;;;;;;5027825;28;20030;-69
2023/10/15 12:15:56;;;;;;;7.80;2.85;;;27.20;49.00;;;;;;5028640;28;20456;-69
2023/10/15 12:18:22;;;;;;;4.43;2.88;;;27.20;49.50;;;;;;5028643;28;20038;-69
2023/10/15 12:20:49;;;;;;;4.57;2.80;;;27.10;49.20;;;;;;5028820;28;20132;-70
2023/10/15 12:23:24;;;;;;;5.72;2.92;;;27.00;49.10;;;;;;4982851;28;20658;-69
2023/10/15 12:25:50;;;;;;;3.67;2.17;;;27.00;49.10;;;;;;5008714;28;20428;-69
2023/10/15 12:28:16;;;;;;;3.17;2.50;;;27.00;49.10;;;;;;5008530;28;20066;-70
2023/10/15 12:30:42;;;;;;;4.80;3.03;;;27.00;49.10;;;;;;5033224;28;20037;-68
2023/10/15 12:33:15;;;;;;;3.13;2.78;;;26.90;48.60;;;;;;5059391;28;20029;-70
2023/10/15 12:35:43;;;;;;;7.68;3.15;;;26.90;48.60;;;;;;5052966;28;20333;-71
2023/10/15 12:38:19;;;;;;;5.60;3.22;;;27.00;49.40;;;;;;5069734;28;20020;-69
2023/10/15 12:40:51;;;;;;;6.90;2.88;;;26.90;49.00;;;;;;5069783;28;20065;-69
2023/10/15 12:43:17;;;;;;;4.18;3.03;;;26.90;49.10;;;;;;5082735;28;20113;-70
2023/10/15 12:45:49;;;;;;;5.63;2.65;;;26.80;49.20;;;;;;5090960;28;20048;-69
2023/10/15 12:48:18;;;;;;;4.15;2.45;;;26.80;49.40;;;;;;5080870;28;20028;-69
2023/10/15 12:50:47;;;;;;;5.85;2.63;;;26.70;49.60;;;;;;5074874;28;20043;-68
2023/10/15 12:53:15;;;;;;;7.05;2.58;;;26.70;49.70;;;;;;5070803;28;20039;-68
2023/10/15 12:55:43;;;;;;;3.10;2.05;;;26.60;49.90;;;;;;5047951;28;20076;-67
2023/10/15 12:58:10;;;;;;;4.22;2.47;;;26.70;49.90;;;;;;5048243;28;20037;-69
2023/10/15 13:00:43;;;;;;;5.55;2.90;;;26.70;49.90;;;;;;5053966;28;20045;-69
2023/10/15 13:03:10;;;;;;;7.35;2.83;;;26.60;50.80;;;;;;5068511;28;20032;-72
2023/10/15 13:05:36;;;;;;;7.45;2.88;;;26.60;52.80;;;;;;5068441;28;20052;-73
2023/10/15 13:08:03;;;;;;;6.55;2.47;;;26.60;52.70;;;;;;5070964;28;20051;-72
2023/10/15 13:10:29;;;;;;;7.35;2.83;;;26.50;52.40;;;;;;5072105;28;20123;-72
2023/10/15 13:12:55;;;;;;;11.25;3.15;;;26.60;52.10;;;;;;5072132;28;20033;-70
2023/10/15 13:15:22;;;;;;;3.25;1.70;;;26.60;51.80;;;;;;5071974;28;20047;-70
2023/10/15 13:17:49;;;;;;;6.20;2.83;;;26.50;51.60;;;;;;5072584;28;20040;-70
2023/10/15 13:20:17;;;;;;;3.67;2.55;;;26.60;51.50;;;;;;5071785;28;20122;-70
2023/10/15 13:22:44;;;;;;;5.50;2.92;;;26.50;51.40;;;;;;5071946;28;20028;-70
2023/10/15 13:25:11;;;;;;;10.40;3.10;;;26.60;51.30;;;;;;5037978;28;20499;-70